Time;durP1;ratioP1;P1;durP2;ratioP2;P2;SDS_P1;SDS_P2;PMS_P1;PMS_P2;Temp;Humidity;BMP_temperature;BMP_pressure;BME280_temperature;BME280_humidity;BME280_pressure;Samples;Min_cycle;Max_cycle;Signal;HPM_P1;HPM_P2
2023/06/03 00:02:04;;;;;;;;;16.00;15.00;26.40;48.10;;;;;;111246;1241;53553;-69
2023/06/03 00:04:31;;;;;;;;;14.75;13.75;26.40;48.10;;;;;;111366;1240;44590;-68
2023/06/03 00:06:59;;;;;;;;;15.00;12.00;26.40;48.10;;;;;;111410;1241;48724;-70
2023/06/03 00:09:26;;;;;;;;;13.25;12.00;26.40;48.10;;;;;;111421;1241;49682;-68
2023/06/03 00:11:53;;;;;;;;;13.67;12.67;26.40;48.10;;;;;;111240;1238;54174;-69
2023/06/03 00:14:20;;;;;;;;;13.50;12.25;26.40;48.20;;;;;;111456;1238;45052;-68
2023/06/03 00:16:47;;;;;;;;;14.00;12.00;26.40;48.20;;;;;;111359;1238;50320;-69
2023/06/03 00:19:14;;;;;;;;;12.67;11.67;26.40;48.20;;;;;;111321;1238;49729;-68
2023/06/03 00:21:45;;;;;;;;;17.75;14.00;26.40;48.40;;;;;;111243;1243;54346;-69
2023/06/03 00:24:25;;;;;;;;;13.33;12.00;26.30;48.10;;;;;;111277;1243;44993;-69
2023/06/03 00:26:52;;;;;;;;;12.00;11.00;26.30;48.10;;;;;;111265;1238;49795;-69
2023/06/03 00:29:20;;;;;;;;;13.00;12.00;26.30;48.10;;;;;;111291;1243;49486;-68
2023/06/03 00:31:47;;;;;;;;;13.00;12.25;26.30;48.10;;;;;;111249;1239;53311;-68
2023/06/03 00:34:14;;;;;;;;;12.50;11.50;26.30;48.10;;;;;;111267;1240;44848;-69
2023/06/03 00:36:41;;;;;;;;;15.00;14.00;26.30;48.20;;;;;;111358;1238;49611;-68
2023/06/03 00:39:10;;;;;;;;;13.33;12.00;26.30;48.20;;;;;;111255;1243;49218;-69
2023/06/03 00:41:37;;;;;;;;;13.75;12.75;26.30;48.40;;;;;;111336;1244;54308;-69
2023/06/03 00:44:04;;;;;;;;;13.25;12.25;26.20;48.10;;;;;;111415;1243;44744;-68
2023/06/03 00:46:34;;;;;;;;;16.50;12.50;26.30;48.20;;;;;;111239;1238;49446;-68
2023/06/03 00:49:02;;;;;;;;;15.00;14.00;26.20;48.10;;;;;;111253;1240;49759;-69
2023/06/03 00:51:30;;;;;;;;;14.00;13.00;26.30;48.60;;;;;;111270;1238;54302;-69
2023/06/03 00:53:58;;;;;;;;;12.00;11.00;26.20;48.20;;;;;;111199;1239;44531;-71
2023/06/03 00:56:26;;;;;;;;;14.00;13.00;26.20;47.80;;;;;;111486;1239;49118;-69
2023/06/03 00:58:53;;;;;;;;;14.00;13.00;26.20;48.20;;;;;;111245;1241;51899;-69
2023/06/03 01:01:21;;;;;;;;;15.00;14.00;26.20;48.20;;;;;;111421;1243;53997;-69
2023/06/03 01:03:48;;;;;;;;;12.00;11.00;26.20;48.20;;;;;;111221;1238;45321;-69
2023/06/03 01:06:27;;;;;;;;;18.00;14.25;26.20;48.50;;;;;;111264;1244;49543;-69
2023/06/03 01:09:04;;;;;;;;;14.25;13.25;26.20;48.40;;;;;;111286;1244;49905;-69
2023/06/03 01:11:57;;;;;;;;;15.00;14.00;26.20;48.20;;;;;;111234;1241;54199;-68
2023/06/03 01:14:41;;;;;;;;;15.75;13.25;26.20;48.20;;;;;;111480;1241;44646;-68
2023/06/03 01:17:09;;;;;;;;;14.00;12.75;26.20;48.20;;;;;;111289;1240;48854;-68
2023/06/03 01:19:49;;;;;;;;;13.75;12.75;26.20;48.40;;;;;;111325;1242;49869;-69
2023/06/03 01:22:18;;;;;;;;;13.00;12.00;26.20;48.20;;;;;;110546;1241;1212770;-69
2023/06/03 01:24:48;;;;;;;;;15.00;14.00;26.20;48.20;;;;;;111241;1243;46262;-70
2023/06/03 01:27:15;;;;;;;;;14.00;12.00;26.20;48.20;;;;;;111258;1240;49603;-69
2023/06/03 01:29:43;;;;;;;;;14.00;13.00;26.20;48.20;;;;;;111381;1239;50413;-68
2023/06/03 01:32:13;;;;;;;;;13.50;12.50;26.20;48.20;;;;;;111436;1240;54745;-69
2023/06/03 01:34:41;;;;;;;;;14.75;13.00;26.20;48.20;;;;;;111362;1240;44150;-68
2023/06/03 01:37:10;;;;;;;;;15.25;14.25;26.20;48.20;;;;;;111126;1241;49248;-68
2023/06/03 01:39:39;;;;;;;;;12.50;11.25;26.20;48.20;;;;;;111339;1238;50098;-69
2023/06/03 01:42:10;;;;;;;;;13.00;12.00;26.20;48.50;;;;;;111350;1243;53441;-68
2023/06/03 01:44:38;;;;;;;;;17.50;13.00;26.10;48.20;;;;;;111294;1238;44775;-68
2023/06/03 01:47:05;;;;;;;;;12.25;11.50;26.10;48.20;;;;;;111424;1238;49061;-68
2023/06/03 01:49:32;;;;;;;;;13.75;12.50;26.10;48.20;;;;;;111214;1243;49358;-68
2023/06/03 01:52:00;;;;;;;;;12.25;11.00;26.10;48.20;;;;;;111419;1241;54097;-68
2023/06/03 01:54:28;;;;;;;;;15.67;13.00;26.10;48.20;;;;;;111296;1243;44621;-69
2023/06/03 01:56:56;;;;;;;;;13.00;12.00;26.10;48.30;;;;;;111238;1243;49953;-68
2023/06/03 01:59:24;;;;;;;;;13.75;12.75;26.10;48.30;;;;;;111414;1241;49132;-68
2023/06/03 02:01:52;;;;;;;;;13.00;12.00;26.10;48.30;;;;;;111435;1238;53898;-68
2023/06/03 02:04:19;;;;;;;;;13.00;12.00;26.10;48.50;;;;;;111407;1238;44858;-68
2023/06/03 02:06:48;;;;;;;;;14.00;12.00;26.10;48.30;;;;;;111252;1243;49387;-68
2023/06/03 02:09:15;;;;;;;;;15.50;14.50;26.10;48.30;;;;;;111261;1243;50458;-68
2023/06/03 02:11:43;;;;;;;;;13.50;12.50;26.10;48.30;;;;;;111307;1238;53910;-68
2023/06/03 02:14:14;;;;;;;;;14.00;13.00;26.10;48.30;;;;;;111365;1240;44223;-68
2023/06/03 02:16:41;;;;;;;;;14.00;12.00;26.00;48.30;;;;;;111496;1243;49458;-69
2023/06/03 02:19:17;;;;;;;;;15.25;14.00;26.00;48.50;;;;;;111379;1241;49922;-68
2023/06/03 02:21:45;;;;;;;;;14.33;13.33;26.00;48.20;;;;;;111290;1243;54109;-69
2023/06/03 02:24:16;;;;;;;;;14.75;12.50;26.10;48.30;;;;;;111327;1243;44480;-68
2023/06/03 02:26:50;;;;;;;;;15.25;14.25;26.10;48.30;;;;;;111245;1239;50341;-70
2023/06/03 02:29:22;;;;;;;;;15.00;13.00;26.00;48.20;;;;;;111277;1238;49157;-70
2023/06/03 02:31:50;;;;;;;;;17.50;14.75;26.00;48.20;;;;;;111303;1243;53793;-69
2023/06/03 02:34:17;;;;;;;;;15.00;14.00;26.00;48.50;;;;;;111272;1238;44485;-69
2023/06/03 02:36:44;;;;;;;;;13.25;12.25;26.00;48.20;;;;;;111330;1241;49866;-69
2023/06/03 02:39:11;;;;;;;;;16.00;15.00;26.00;48.50;;;;;;111410;1241;49403;-68
2023/06/03 02:41:42;;;;;;;;;15.00;14.00;26.00;48.30;;;;;;111253;1242;53688;-68
2023/06/03 02:44:09;;;;;;;;;14.00;12.67;26.00;48.30;;;;;;111489;1241;44821;-68
2023/06/03 02:46:36;;;;;;;;;13.00;12.00;26.00;48.30;;;;;;111261;1243;49020;-68
2023/06/03 02:49:05;;;;;;;;;14.00;12.00;26.00;48.30;;;;;;111236;1243;49654;-69
2023/06/03 02:51:32;;;;;;;;;14.00;11.00;26.00;48.20;;;;;;111216;1243;53848;-69
2023/06/03 02:54:00;;;;;;;;;13.75;12.75;26.00;48.30;;;;;;111301;1243;45379;-69
2023/06/03 02:56:26;;;;;;;;;13.00;12.00;26.00;48.30;;;;;;111595;1240;49520;-71
2023/06/03 02:58:54;;;;;;;;;13.00;12.00;25.90;48.20;;;;;;111466;1238;49346;-69
2023/06/03 03:01:22;;;;;;;;;14.00;13.00;26.00;48.40;;;;;;111290;1238;54068;-69
2023/06/03 03:03:49;;;;;;;;;13.75;12.75;26.00;48.50;;;;;;111244;1243;45502;-68
2023/06/03 03:06:19;;;;;;;;;15.00;14.00;26.00;48.30;;;;;;111396;1239;49519;-69
2023/06/03 03:08:50;;;;;;;;;14.75;13.75;25.90;48.20;;;;;;111229;1243;49829;-69
2023/06/03 03:11:18;;;;;;;;;11.00;10.00;25.90;48.20;;;;;;111285;1238;54677;-70
2023/06/03 03:13:45;;;;;;;;;14.00;11.33;26.00;48.20;;;;;;111306;1238;45600;-69
2023/06/03 03:16:13;;;;;;;;;14.00;11.75;25.90;48.20;;;;;;111274;1240;49570;-68
2023/06/03 03:18:40;;;;;;;;;15.33;12.00;25.90;48.20;;;;;;111483;1239;50126;-70
2023/06/03 03:21:07;;;;;;;;;13.00;11.50;25.90;48.10;;;;;;111255;1243;54134;-69
2023/06/03 03:23:36;;;;;;;;;15.50;13.75;25.90;48.40;;;;;;111272;1239;45124;-71
2023/06/03 03:26:07;;;;;;;;;14.00;13.00;25.90;48.20;;;;;;111264;1241;49918;-70
2023/06/03 03:28:35;;;;;;;;;12.00;11.00;25.90;48.20;;;;;;111534;1244;49047;-70
2023/06/03 03:31:04;;;;;;;;;14.00;13.00;25.90;48.20;;;;;;111417;1241;53370;-68
2023/06/03 03:33:31;;;;;;;;;14.75;13.75;25.90;48.40;;;;;;111217;1242;44458;-69
2023/06/03 03:36:08;;;;;;;;;12.67;11.67;25.90;48.20;;;;;;111228;1243;49373;-69
2023/06/03 03:38:36;;;;;;;;;14.67;14.00;25.90;48.20;;;;;;111210;1243;48786;-69
2023/06/03 03:41:07;;;;;;;;;13.00;12.00;25.90;48.20;;;;;;111433;1243;54216;-68
2023/06/03 03:43:34;;;;;;;;;16.67;13.67;25.90;48.20;;;;;;111300;1241;44443;-69
2023/06/03 03:46:02;;;;;;;;;15.00;14.00;25.90;48.20;;;;;;111503;1238;49694;-69
2023/06/03 03:48:33;;;;;;;;;13.75;12.75;25.90;48.40;;;;;;111469;1238;49848;-68
2023/06/03 03:51:00;;;;;;;;;14.00;13.00;25.90;48.40;;;;;;111250;1239;53164;-69
2023/06/03 03:53:35;;;;;;;;;15.00;14.00;25.90;48.20;;;;;;111436;1238;44652;-68
2023/06/03 03:56:03;;;;;;;;;16.00;14.75;25.90;48.40;;;;;;111342;1238;50456;-68
2023/06/03 03:58:42;;;;;;;;;13.00;12.00;25.90;48.20;;;;;;111289;1243;49892;-68
2023/06/03 04:01:24;;;;;;;;;18.75;14.00;25.90;48.20;;;;;;111211;1243;54008;-68
2023/06/03 04:03:57;;;;;;;;;18.33;14.67;25.90;48.20;;;;;;111242;1243;45776;-68
2023/06/03 04:06:36;;;;;;;;;11.00;10.25;25.90;48.20;;;;;;111251;1243;49608;-69
2023/06/03 04:09:04;;;;;;;;;13.33;12.00;25.80;48.20;;;;;;111258;1241;49612;-69
2023/06/03 04:11:41;;;;;;;;;14.50;12.50;25.80;48.20;;;;;;111209;1243;53466;-69
2023/06/03 04:14:10;;;;;;;;;12.00;11.00;25.80;48.20;;;;;;111395;1238;44771;-69
2023/06/03 04:16:44;;;;;;;;;15.00;14.00;25.80;48.20;;;;;;111257;1244;49141;-68
2023/06/03 04:19:17;;;;;;;;;13.00;12.00;25.80;48.20;;;;;;111221;1238;49619;-69
2023/06/03 04:21:44;;;;;;;;;14.75;13.50;25.80;47.90;;;;;;111407;1238;54844;-69
2023/06/03 04:24:12;;;;;;;;;14.67;13.67;25.80;48.20;;;;;;111279;1239;44201;-69
2023/06/03 04:26:41;;;;;;;;;15.67;13.00;25.80;48.30;;;;;;111258;1243;49886;-68
2023/06/03 04:29:08;;;;;;;;;16.25;13.00;25.80;48.30;;;;;;111274;1239;49700;-68
2023/06/03 04:31:35;;;;;;;;;13.00;12.00;25.80;48.20;;;;;;111325;1244;54416;-68
2023/06/03 04:34:02;;;;;;;;;12.75;11.75;25.80;48.50;;;;;;111454;1238;44883;-68
2023/06/03 04:36:29;;;;;;;;;16.00;15.00;25.80;48.30;;;;;;111501;1241;49196;-68
2023/06/03 04:38:58;;;;;;;;;12.25;11.25;25.70;48.20;;;;;;111348;1239;49630;-69
2023/06/03 04:41:27;;;;;;;;;13.50;12.75;25.80;48.50;;;;;;111397;1243;53127;-68
2023/06/03 04:43:55;;;;;;;;;14.00;12.00;25.70;48.20;;;;;;111384;1237;44543;-68
2023/06/03 04:46:29;;;;;;;;;15.50;13.25;25.80;48.50;;;;;;111231;1238;50609;-69
2023/06/03 04:48:57;;;;;;;;;13.00;12.00;25.70;48.30;;;;;;111252;1240;49165;-69
2023/06/03 04:51:28;;;;;;;;;12.00;11.00;25.80;48.30;;;;;;111258;1244;53958;-67
2023/06/03 04:54:12;;;;;;;;;13.00;12.00;25.80;48.30;;;;;;110915;1242;44650;-68
2023/06/03 04:56:39;;;;;;;;;12.67;11.67;25.70;48.20;;;;;;110954;1246;50042;-67
2023/06/03 04:59:06;;;;;;;;;16.00;13.00;25.80;48.20;;;;;;110980;1245;50516;-68
2023/06/03 05:01:36;;;;;;;;;13.75;12.75;25.80;48.30;;;;;;110932;1245;54079;-69
2023/06/03 05:04:03;;;;;;;;;14.00;12.00;25.70;48.20;;;;;;110946;1247;44277;-68
2023/06/03 05:06:32;;;;;;;;;13.25;12.50;25.70;48.30;;;;;;111012;1246;49845;-70
2023/06/03 05:08:59;;;;;;;;;14.00;13.00;25.70;48.30;;;;;;110938;1247;49504;-69
2023/06/03 05:11:26;;;;;;;;;12.00;11.00;25.70;48.30;;;;;;110904;1245;54268;-68
2023/06/03 05:13:53;;;;;;;;;15.00;14.00;25.70;48.40;;;;;;110932;1246;44781;-69
2023/06/03 05:16:20;;;;;;;;;13.00;12.00;25.70;48.40;;;;;;110945;1247;48895;-69
2023/06/03 05:18:47;;;;;;;;;15.75;14.75;25.70;48.40;;;;;;111047;1243;49344;-68
2023/06/03 05:21:17;;;;;;;;;10.25;9.00;25.70;48.40;;;;;;111186;1240;53560;-69
2023/06/03 05:23:46;;;;;;;;;13.00;12.00;25.70;48.60;;;;;;111274;1243;44841;-68
2023/06/03 05:26:13;;;;;;;;;15.75;14.75;25.70;48.50;;;;;;111474;1241;50387;-69
2023/06/03 05:28:40;;;;;;;;;15.50;14.50;25.70;48.40;;;;;;111292;1243;49076;-68
2023/06/03 05:31:11;;;;;;;;;14.00;13.00;25.70;48.40;;;;;;111452;1237;53533;-68
2023/06/03 05:33:40;;;;;;;;;17.00;15.50;25.70;48.60;;;;;;111240;1240;44961;-67
2023/06/03 05:36:08;;;;;;;;;16.00;13.00;25.70;48.60;;;;;;111425;1240;49954;-69
2023/06/03 05:38:35;;;;;;;;;12.50;11.00;25.70;48.50;;;;;;111356;1244;50067;-68
2023/06/03 05:41:04;;;;;;;;;13.00;12.00;25.70;48.40;;;;;;111424;1241;54672;-67
2023/06/03 05:43:30;;;;;;;;;18.00;14.50;25.70;48.50;;;;;;111425;1243;44474;-68
2023/06/03 05:45:57;;;;;;;;;15.67;13.67;25.70;48.50;;;;;;111342;1243;49126;-68
2023/06/03 05:48:26;;;;;;;;;13.00;12.00;25.60;48.40;;;;;;111284;1240;49793;-69
2023/06/03 05:50:54;;;;;;;;;13.25;12.25;25.70;48.50;;;;;;111380;1238;53689;-68
2023/06/03 05:53:23;;;;;;;;;11.00;10.00;25.60;48.60;;;;;;111407;1237;44851;-68
2023/06/03 05:55:51;;;;;;;;;15.00;12.33;25.60;48.50;;;;;;111270;1241;49036;-68
2023/06/03 05:58:19;;;;;;;;;13.75;12.75;25.60;48.50;;;;;;111227;1243;49896;-68
2023/06/03 06:00:46;;;;;;;;;12.50;11.00;25.60;48.50;;;;;;111430;1244;53805;-68
2023/06/03 06:03:14;;;;;;;;;14.25;12.00;25.60;48.70;;;;;;111425;1238;44866;-69
2023/06/03 06:05:41;;;;;;;;;14.67;13.67;25.60;48.50;;;;;;111271;1240;50006;-67
2023/06/03 06:08:08;;;;;;;;;14.00;12.00;25.60;48.60;;;;;;111256;1240;49109;-68
2023/06/03 06:10:37;;;;;;;;;13.00;12.00;25.70;48.80;;;;;;111281;1244;53447;-69
2023/06/03 06:13:04;;;;;;;;;13.00;12.00;25.60;48.50;;;;;;111330;1238;45607;-68
2023/06/03 06:15:31;;;;;;;;;13.00;12.00;25.70;48.60;;;;;;111501;1240;49306;-69
2023/06/03 06:17:59;;;;;;;;;12.75;11.75;25.70;48.90;;;;;;111369;1239;50090;-68
2023/06/03 06:20:25;;;;;;;;;14.67;13.67;25.70;48.60;;;;;;111431;1243;53897;-69
2023/06/03 06:22:53;;;;;;;;;14.00;13.00;25.70;48.60;;;;;;111319;1244;44575;-68
2023/06/03 06:25:21;;;;;;;;;12.67;11.33;25.70;48.80;;;;;;111479;1237;49948;-69
2023/06/03 06:27:48;;;;;;;;;12.00;11.67;25.70;48.70;;;;;;111309;1238;49640;-68
2023/06/03 06:30:16;;;;;;;;;12.67;11.67;25.70;48.80;;;;;;111397;1241;53536;-68
2023/06/03 06:32:51;;;;;;;;;13.75;12.50;25.70;48.60;;;;;;111384;1238;44580;-68
2023/06/03 06:35:20;;;;;;;;;13.00;12.00;25.70;48.60;;;;;;111374;1239;49020;-69
2023/06/03 06:37:47;;;;;;;;;14.33;13.00;25.70;48.70;;;;;;111430;1238;49022;-68
2023/06/03 06:40:19;;;;;;;;;13.00;12.00;25.70;48.60;;;;;;111199;1238;54193;-68
2023/06/03 06:42:46;;;;;;;;;13.50;12.00;25.80;48.70;;;;;;111371;1241;44904;-68
2023/06/03 06:45:19;;;;;;;;;13.75;12.75;25.70;48.80;;;;;;111312;1241;49221;-68
2023/06/03 06:47:46;;;;;;;;;13.00;12.00;25.80;49.20;;;;;;111212;1238;49027;-68
2023/06/03 06:50:42;;;;;;;;;14.00;13.00;25.80;48.70;;;;;;111202;1239;53994;-68
2023/06/03 06:53:11;;;;;;;;;14.50;12.25;25.80;49.20;;;;;;111193;1239;45092;-67
2023/06/03 06:55:56;;;;;;;;;11.25;10.25;25.80;48.80;;;;;;111345;1243;49701;-68
2023/06/03 06:58:26;;;;;;;;;16.50;13.75;25.80;48.60;;;;;;111244;1243;49903;-68
2023/06/03 07:00:53;;;;;;;;;14.50;11.75;25.90;48.60;;;;;;111261;1243;53262;-68
2023/06/03 07:03:21;;;;;;;;;13.00;12.00;25.80;48.60;;;;;;111243;1246;44879;-68
2023/06/03 07:05:52;;;;;;;;;12.00;11.00;25.90;48.70;;;;;;111231;1238;49377;-68
2023/06/03 07:08:21;;;;;;;;;13.00;12.00;25.90;48.70;;;;;;111377;1238;49178;-68
2023/06/03 07:10:49;;;;;;;;;14.50;13.50;25.90;48.60;;;;;;111281;1240;54143;-68
2023/06/03 07:13:16;;;;;;;;;15.67;15.00;25.90;48.60;;;;;;111410;1238;45546;-69
2023/06/03 07:15:44;;;;;;;;;15.00;14.00;25.90;48.60;;;;;;111263;1240;49766;-68
2023/06/03 07:18:12;;;;;;;;;13.00;11.75;25.90;48.70;;;;;;111318;1243;49428;-67
2023/06/03 07:20:42;;;;;;;;;13.25;12.25;25.90;48.60;;;;;;111402;1238;53804;-69
2023/06/03 07:23:19;;;;;;;;;14.00;13.00;25.90;48.60;;;;;;111428;1238;45383;-68
2023/06/03 07:25:50;;;;;;;;;12.00;11.00;26.00;48.70;;;;;;111274;1243;49237;-68
2023/06/03 07:28:22;;;;;;;;;13.50;12.00;26.00;48.90;;;;;;111292;1242;49360;-68
2023/06/03 07:30:52;;;;;;;;;12.00;11.00;26.00;48.70;;;;;;111329;1239;54047;-68
2023/06/03 07:33:29;;;;;;;;;14.25;11.00;26.10;48.70;;;;;;111287;1239;44275;-67
2023/06/03 07:35:59;;;;;;;;;12.00;11.00;26.10;48.70;;;;;;111249;1243;49098;-68
2023/06/03 07:38:38;;;;;;;;;12.00;11.00;26.10;48.60;;;;;;111248;1243;50610;-67
2023/06/03 07:41:06;;;;;;;;;14.75;11.75;26.10;48.60;;;;;;111221;1238;54076;-67
2023/06/03 07:43:34;;;;;;;;;12.00;11.00;26.10;48.80;;;;;;111407;1238;44471;-68
2023/06/03 07:46:06;;;;;;;;;14.00;12.33;26.10;48.60;;;;;;111269;1245;49742;-68
2023/06/03 07:48:36;;;;;;;;;12.00;11.00;26.20;48.70;;;;;;111242;1243;49756;-68
2023/06/03 07:51:05;;;;;;;;;12.50;10.75;26.20;48.60;;;;;;111206;1240;53578;-67
2023/06/03 07:53:35;;;;;;;;;14.00;13.00;26.20;48.70;;;;;;111546;1240;44532;-68
2023/06/03 07:56:11;;;;;;;;;12.75;11.00;26.20;48.60;;;;;;111306;1239;48983;-68
2023/06/03 07:58:38;;;;;;;;;14.00;13.00;26.20;48.80;;;;;;111255;1244;49701;-69
2023/06/03 08:01:05;;;;;;;;;14.00;11.00;26.30;48.60;;;;;;111206;1242;54194;-69
2023/06/03 08:03:33;;;;;;;;;12.00;11.25;26.30;48.60;;;;;;111310;1240;45674;-69
2023/06/03 08:06:00;;;;;;;;;13.00;11.00;26.30;48.60;;;;;;111287;1241;49480;-69
2023/06/03 08:08:31;;;;;;;;;12.75;11.50;26.30;48.60;;;;;;111264;1240;49827;-69
2023/06/03 08:11:01;;;;;;;;;13.75;12.50;26.30;48.60;;;;;;111228;1243;53801;-68
2023/06/03 08:13:29;;;;;;;;;11.50;10.25;26.30;48.60;;;;;;111328;1243;44327;-68
2023/06/03 08:15:57;;;;;;;;;15.00;14.00;26.30;48.60;;;;;;111263;1243;49964;-67
2023/06/03 08:18:43;;;;;;;;;12.50;11.50;26.40;48.70;;;;;;111267;1241;49579;-68
2023/06/03 08:21:12;;;;;;;;;12.00;11.00;26.40;48.60;;;;;;111405;1238;53771;-68
2023/06/03 08:23:39;;;;;;;;;13.75;11.00;26.40;48.60;;;;;;111317;1241;44195;-68
2023/06/03 08:26:08;;;;;;;;;13.75;12.50;26.40;48.70;;;;;;111284;1241;49762;-69
2023/06/03 08:28:38;;;;;;;;;12.00;11.00;26.40;48.60;;;;;;111282;1238;49258;-68
2023/06/03 08:31:06;;;;;;;;;11.00;10.00;26.50;48.60;;;;;;111289;1243;54051;-69
2023/06/03 08:33:33;;;;;;;;;12.75;11.75;26.50;48.80;;;;;;111260;1244;44267;-69
2023/06/03 08:36:01;;;;;;;;;13.75;12.75;26.50;48.60;;;;;;111385;1241;49501;-70
2023/06/03 08:38:28;;;;;;;;;13.00;10.00;26.50;48.80;;;;;;111297;1244;49689;-70
2023/06/03 08:40:56;;;;;;;;;11.00;10.00;26.50;48.50;;;;;;111417;1238;53265;-67
2023/06/03 08:43:28;;;;;;;;;14.25;12.00;26.50;48.60;;;;;;111349;1239;44277;-68
2023/06/03 08:46:13;;;;;;;;;16.00;13.67;26.50;48.60;;;;;;111253;1243;48964;-69
2023/06/03 08:49:07;;;;;;;;;13.00;11.75;26.50;48.50;;;;;;111229;1238;49151;-68
2023/06/03 08:51:39;;;;;;;;;11.25;10.00;26.60;48.70;;;;;;111193;1239;53444;-69
2023/06/03 08:54:13;;;;;;;;;12.75;11.75;26.60;48.60;;;;;;111227;1238;44489;-68
2023/06/03 08:56:44;;;;;;;;;13.00;12.00;26.60;48.50;;;;;;111282;1243;49517;-70
2023/06/03 08:59:19;;;;;;;;;12.00;11.00;26.60;48.60;;;;;;111393;1241;49508;-68
2023/06/03 09:01:46;;;;;;;;;13.67;12.67;26.60;48.40;;;;;;111209;1240;54348;-68
2023/06/03 09:04:14;;;;;;;;;11.00;9.75;26.60;48.40;;;;;;111297;1238;44628;-68
2023/06/03 09:06:44;;;;;;;;;13.00;12.00;26.60;48.40;;;;;;111349;1238;49678;-69
2023/06/03 09:09:13;;;;;;;;;11.33;10.67;26.70;48.50;;;;;;111273;1239;49837;-69
2023/06/03 09:11:42;;;;;;;;;12.00;11.00;26.70;48.40;;;;;;111340;1241;53786;-68
2023/06/03 09:14:10;;;;;;;;;12.50;11.00;26.60;48.40;;;;;;111508;1242;44077;-68
2023/06/03 09:16:37;;;;;;;;;10.33;9.33;26.70;48.50;;;;;;111504;1238;49529;-68
2023/06/03 09:19:05;;;;;;;;;15.25;11.75;26.70;48.60;;;;;;111204;1239;49353;-69
2023/06/03 09:21:32;;;;;;;;;11.00;10.00;26.70;48.40;;;;;;111237;1240;54092;-69
2023/06/03 09:23:59;;;;;;;;;11.00;10.00;26.70;48.60;;;;;;111259;1244;45084;-67
2023/06/03 09:26:27;;;;;;;;;11.75;10.50;26.70;48.40;;;;;;111257;1243;49741;-68
2023/06/03 09:28:54;;;;;;;;;12.75;11.75;26.70;48.40;;;;;;111191;1239;50252;-68
2023/06/03 09:31:22;;;;;;;;;11.00;10.00;26.70;48.40;;;;;;111427;1241;54354;-68
2023/06/03 09:33:49;;;;;;;;;11.00;10.00;26.70;48.40;;;;;;111212;1244;45241;-69
2023/06/03 09:36:17;;;;;;;;;10.75;9.75;26.70;48.40;;;;;;111300;1240;49496;-68
2023/06/03 09:38:53;;;;;;;;;10.75;9.75;26.70;48.40;;;;;;111260;1243;49413;-68
2023/06/03 09:41:25;;;;;;;;;13.00;12.00;26.70;48.90;;;;;;111481;1238;53785;-68
2023/06/03 09:44:03;;;;;;;;;11.00;9.75;26.70;48.30;;;;;;111261;1238;44895;-68
2023/06/03 09:46:31;;;;;;;;;11.75;10.75;26.70;48.40;;;;;;111363;1240;48816;-68
2023/06/03 09:49:16;;;;;;;;;12.25;11.25;26.70;48.60;;;;;;111280;1243;49438;-68
2023/06/03 09:51:45;;;;;;;;;11.50;10.50;26.80;48.40;;;;;;111393;1240;53930;-67
2023/06/03 09:54:13;;;;;;;;;12.50;10.25;26.80;48.40;;;;;;111302;1238;44235;-68
2023/06/03 09:56:41;;;;;;;;;10.75;9.75;26.80;48.40;;;;;;111442;1241;49443;-68
2023/06/03 09:59:14;;;;;;;;;11.00;10.00;26.70;48.30;;;;;;111318;1238;49222;-69
2023/06/03 10:01:43;;;;;;;;;11.75;10.75;26.70;48.30;;;;;;111366;1243;54742;-69
2023/06/03 10:04:10;;;;;;;;;11.75;10.75;26.80;48.40;;;;;;111310;1243;44189;-68
2023/06/03 10:06:38;;;;;;;;;15.75;13.25;26.80;48.60;;;;;;111312;1238;49119;-68
2023/06/03 10:09:19;;;;;;;;;11.00;10.00;26.80;48.60;;;;;;111468;1237;49396;-68
2023/06/03 10:11:50;;;;;;;;;12.75;11.75;26.80;48.40;;;;;;111348;1240;54406;-69
2023/06/03 10:14:21;;;;;;;;;11.00;10.00;26.80;48.40;;;;;;111319;1243;44863;-69
2023/06/03 10:17:09;;;;;;;;;14.50;11.75;26.80;48.60;;;;;;111289;1239;49688;-69
2023/06/03 10:19:38;;;;;;;;;12.25;11.00;26.80;48.40;;;;;;111225;1239;50064;-69
2023/06/03 10:22:07;;;;;;;;;12.67;11.67;26.90;48.40;;;;;;111231;1241;54191;-67
2023/06/03 10:24:37;;;;;;;;;10.50;9.00;26.90;48.40;;;;;;111321;1244;44540;-68
2023/06/03 10:27:05;;;;;;;;;12.50;11.25;26.90;48.40;;;;;;111254;1240;48855;-68
2023/06/03 10:29:33;;;;;;;;;15.00;12.00;26.90;48.40;;;;;;111230;1243;50127;-68
2023/06/03 10:32:02;;;;;;;;;10.33;9.00;26.90;48.30;;;;;;111340;1244;54877;-68
2023/06/03 10:34:30;;;;;;;;;13.67;12.00;26.90;48.30;;;;;;111480;1241;45047;-68
2023/06/03 10:37:01;;;;;;;;;10.00;9.00;27.00;48.40;;;;;;111237;1240;49591;-67
2023/06/03 10:39:31;;;;;;;;;13.00;11.75;27.00;48.60;;;;;;111259;1243;49841;-69
2023/06/03 10:42:00;;;;;;;;;11.00;10.00;27.00;48.60;;;;;;111372;1238;54034;-69
2023/06/03 10:44:27;;;;;;;;;11.75;10.75;27.00;48.40;;;;;;111229;1238;44822;-69
2023/06/03 10:47:02;;;;;;;;;12.75;11.75;27.00;48.40;;;;;;111050;1245;50602;-69
2023/06/03 10:49:33;;;;;;;;;12.00;10.75;27.10;48.40;;;;;;111350;1243;50083;-69
2023/06/03 10:52:25;;;;;;;;;12.00;11.00;27.10;48.40;;;;;;111366;1240;53258;-69
2023/06/03 10:55:07;;;;;;;;;11.00;10.00;27.10;48.30;;;;;;111354;1240;44695;-68
2023/06/03 10:57:38;;;;;;;;;10.75;9.75;27.10;48.30;;;;;;111238;1243;49255;-69
2023/06/03 11:00:05;;;;;;;;;12.00;11.00;27.20;48.30;;;;;;111406;1238;49006;-69
2023/06/03 11:03:08;;;;;;;;;11.67;10.33;27.10;48.20;;;;;;111346;1241;54961;-68
2023/06/03 11:05:36;;;;;;;;;11.00;10.00;27.20;48.30;;;;;;111318;1243;45126;-67
2023/06/03 11:08:03;;;;;;;;;12.75;11.75;27.20;48.30;;;;;;111234;1244;50244;-68
2023/06/03 11:10:36;;;;;;;;;13.25;12.00;27.20;48.20;;;;;;111422;1241;49247;-68
2023/06/03 11:13:03;;;;;;;;;14.00;12.00;27.20;48.20;;;;;;111187;1240;53715;-68
2023/06/03 11:15:59;;;;;;;;;12.00;11.00;27.20;48.30;;;;;;111209;1239;44430;-68
2023/06/03 11:18:28;;;;;;;;;11.67;11.00;27.20;48.50;;;;;;111466;1241;49367;-69
2023/06/03 11:20:55;;;;;;;;;12.00;11.00;27.20;48.30;;;;;;111492;1238;50105;-67
2023/06/03 11:23:43;;;;;;;;;10.75;9.50;27.30;48.50;;;;;;111236;1243;53848;-69
2023/06/03 11:26:33;;;;;;;;;12.00;11.00;27.30;48.30;;;;;;111326;1244;45487;-69
2023/06/03 11:29:03;;;;;;;;;12.00;11.00;27.30;48.30;;;;;;111300;1240;48790;-69
2023/06/03 11:31:31;;;;;;;;;10.00;9.00;27.30;48.20;;;;;;111282;1238;49376;-68
2023/06/03 11:34:20;;;;;;;;;14.50;12.00;27.30;48.20;;;;;;111371;1243;54564;-68
2023/06/03 11:36:54;;;;;;;;;12.00;11.00;27.30;48.20;;;;;;111365;1243;44626;-68
2023/06/03 11:39:22;;;;;;;;;11.67;10.00;27.40;48.30;;;;;;111249;1238;49079;-68
2023/06/03 11:42:01;;;;;;;;;11.75;10.50;27.30;48.10;;;;;;111235;1243;49412;-69
2023/06/03 11:44:29;;;;;;;;;11.00;10.00;27.40;48.40;;;;;;111249;1241;54237;-68
2023/06/03 11:46:56;;;;;;;;;12.00;11.00;27.40;48.20;;;;;;111158;1241;44397;-69
2023/06/03 11:49:24;;;;;;;;;12.50;11.00;27.40;48.20;;;;;;111272;1243;49321;-69
2023/06/03 11:51:56;;;;;;;;;11.50;10.75;27.40;48.20;;;;;;111404;1241;49978;-69
2023/06/03 11:54:24;;;;;;;;;11.50;10.25;27.50;48.20;;;;;;111366;1243;53702;-68
2023/06/03 11:56:54;;;;;;;;;11.00;10.00;27.50;48.20;;;;;;111397;1241;45036;-68
2023/06/03 11:59:26;;;;;;;;;11.00;9.00;27.50;48.20;;;;;;111223;1238;48869;-68
2023/06/03 12:02:04;;;;;;;;;11.75;10.75;27.50;48.20;;;;;;111231;1243;51391;-67
2023/06/03 12:04:33;;;;;;;;;11.00;10.00;27.50;48.10;;;;;;111307;1243;54069;-68
2023/06/03 12:07:00;;;;;;;;;11.75;10.75;27.50;48.10;;;;;;111325;1243;44353;-69
2023/06/03 12:09:29;;;;;;;;;11.00;10.00;27.50;48.10;;;;;;111262;1239;49128;-69
2023/06/03 12:11:56;;;;;;;;;11.00;10.00;27.60;48.30;;;;;;111242;1238;49867;-68
2023/06/03 12:14:24;;;;;;;;;13.00;12.00;27.60;48.10;;;;;;111286;1238;54089;-67
2023/06/03 12:16:52;;;;;;;;;10.67;9.67;27.50;48.00;;;;;;111449;1238;44977;-67
2023/06/03 12:19:19;;;;;;;;;11.67;10.67;27.60;48.10;;;;;;111242;1243;49518;-69
2023/06/03 12:21:57;;;;;;;;;11.33;10.33;27.60;48.20;;;;;;111272;1238;49626;-69
2023/06/03 12:24:30;;;;;;;;;11.00;10.00;27.60;48.10;;;;;;111456;1238;55030;-68
2023/06/03 12:27:13;;;;;;;;;11.25;10.25;27.60;48.20;;;;;;111297;1240;44094;-69
2023/06/03 12:29:45;;;;;;;;;11.00;10.00;27.60;48.20;;;;;;111284;1240;49399;-68
2023/06/03 12:32:12;;;;;;;;;10.00;9.00;27.60;48.00;;;;;;111240;1243;49612;-68
2023/06/03 12:34:39;;;;;;;;;11.00;10.00;27.60;47.50;;;;;;111321;1243;53394;-69